createdAt,value
2018-02-18T00:01:48.247Z,17.90
2018-02-18T00:04:14.638Z,19.00
2018-02-18T00:06:41.447Z,15.80
2018-02-18T00:09:08.808Z,19.58
2018-02-18T00:11:35.109Z,17.37
2018-02-18T00:14:03.069Z,19.52
2018-02-18T00:16:30.109Z,19.30
2018-02-18T00:18:58.211Z,17.73
2018-02-18T00:21:25.248Z,17.48
2018-02-18T00:23:52.760Z,18.33
2018-02-18T00:26:19.751Z,18.87
2018-02-18T00:28:46.085Z,18.70
2018-02-18T00:31:12.319Z,18.80
2018-02-18T00:33:38.750Z,20.50
2018-02-18T00:36:05.517Z,20.25
2018-02-18T00:38:31.771Z,21.35
2018-02-18T00:40:58.169Z,24.52
2018-02-18T00:43:25.008Z,25.50
2018-02-18T00:45:51.211Z,21.90
2018-02-18T00:48:18.208Z,26.15
2018-02-18T00:50:45.390Z,24.45
2018-02-18T00:53:12.338Z,24.60
2018-02-18T00:55:39.274Z,20.85
2018-02-18T00:58:06.894Z,18.48
2018-02-18T01:00:33.359Z,20.12
2018-02-18T01:03:00.323Z,21.92
2018-02-18T01:05:27.573Z,17.83
2018-02-18T01:07:55.425Z,18.67
2018-02-18T01:10:22.395Z,20.15
2018-02-18T01:12:48.587Z,17.33
2018-02-18T01:15:14.819Z,18.33
2018-02-18T01:17:41.029Z,18.23
2018-02-18T01:20:07.256Z,17.58
2018-02-18T01:22:34.080Z,18.62
2018-02-18T01:25:01.832Z,17.75
2018-02-18T01:27:29.113Z,21.17
2018-02-18T01:29:55.966Z,18.87
2018-02-18T01:32:23.259Z,19.85
2018-02-18T01:34:49.463Z,18.83
2018-02-18T01:37:16.449Z,16.77
2018-02-18T01:39:45.007Z,17.35
2018-02-18T01:42:11.214Z,17.83
2018-02-18T01:44:39.098Z,17.58
2018-02-18T01:47:06.059Z,16.40
2018-02-18T01:49:32.826Z,17.52
2018-02-18T01:51:59.593Z,17.80
2018-02-18T01:54:26.368Z,18.00
2018-02-18T01:56:52.597Z,18.15
2018-02-18T01:59:18.961Z,18.12
2018-02-18T02:01:45.170Z,16.23
2018-02-18T02:04:11.539Z,16.35
2018-02-18T02:06:37.903Z,16.15
2018-02-18T02:09:04.866Z,17.30
2018-02-18T02:11:31.754Z,18.05
2018-02-18T02:13:58.739Z,16.98
2018-02-18T02:16:26.215Z,18.17
2018-02-18T02:18:52.425Z,17.17
2018-02-18T02:21:19.907Z,19.73
2018-02-18T02:23:47.487Z,16.02
2018-02-18T02:26:14.537Z,16.67
2018-02-18T02:28:41.299Z,15.68
2018-02-18T02:31:07.516Z,18.87
2018-02-18T02:33:34.262Z,17.83
2018-02-18T02:36:01.524Z,15.80
2018-02-18T02:38:28.296Z,16.42
2018-02-18T02:40:55.619Z,16.87
2018-02-18T02:43:22.776Z,15.65
2018-02-18T02:45:50.301Z,18.85
2018-02-18T02:48:16.557Z,17.45
2018-02-18T02:50:43.426Z,17.30
2018-02-18T02:53:10.379Z,17.35
2018-02-18T02:55:37.237Z,16.12
2018-02-18T02:58:03.736Z,20.77
2018-02-18T03:00:30.699Z,16.25
2018-02-18T03:02:56.902Z,19.23
2018-02-18T03:05:23.882Z,17.50
2018-02-18T03:07:50.394Z,16.45
2018-02-18T03:10:17.661Z,15.30
2018-02-18T03:12:45.280Z,16.98
2018-02-18T03:15:13.050Z,18.10
2018-02-18T03:17:40.837Z,19.77
2018-02-18T03:20:07.555Z,19.15
2018-02-18T03:22:33.758Z,18.23
2018-02-18T03:25:00.892Z,20.37
2018-02-18T03:27:28.026Z,20.02
2018-02-18T03:29:54.394Z,18.65
2018-02-18T03:32:20.771Z,17.23
2018-02-18T03:34:47.204Z,18.23
2018-02-18T03:37:13.928Z,21.98
2018-02-18T03:39:40.912Z,18.05
2018-02-18T03:42:07.533Z,20.80
2018-02-18T03:44:34.595Z,19.17
2018-02-18T03:47:00.808Z,17.37
2018-02-18T03:49:27.686Z,20.55
2018-02-18T03:51:54.676Z,17.75
2018-02-18T03:54:21.607Z,17.70
2018-02-18T03:56:47.806Z,19.50
2018-02-18T03:59:14.373Z,19.02
2018-02-18T04:01:41.357Z,17.33
2018-02-18T04:04:08.686Z,17.77
2018-02-18T04:06:35.881Z,18.30
2018-02-18T04:09:02.911Z,15.70
2018-02-18T04:11:29.207Z,20.10
2018-02-18T04:13:56.194Z,16.83
2018-02-18T04:16:23.675Z,18.65
2018-02-18T04:18:50.710Z,19.58
2018-02-18T04:21:17.814Z,18.48
2018-02-18T04:23:44.786Z,19.30
2018-02-18T04:26:10.987Z,17.95
2018-02-18T04:28:38.234Z,17.42
2018-02-18T04:31:04.973Z,15.82
2018-02-18T04:33:32.680Z,21.23
2018-02-18T04:35:59.440Z,19.02
2018-02-18T04:38:26.145Z,18.83
2018-02-18T04:40:53.335Z,20.00
2018-02-18T04:43:19.533Z,19.25
2018-02-18T04:45:46.276Z,23.38
2018-02-18T04:48:12.531Z,22.30
2018-02-18T04:50:38.845Z,20.80
2018-02-18T04:53:05.700Z,21.20
2018-02-18T04:55:32.207Z,22.98
2018-02-18T04:57:59.885Z,24.27
2018-02-18T05:00:27.325Z,18.87
2018-02-18T05:02:53.518Z,19.60
2018-02-18T05:05:20.491Z,19.25
2018-02-18T05:07:46.809Z,19.92
2018-02-18T05:10:13.123Z,21.73
2018-02-18T05:12:40.373Z,24.23
2018-02-18T05:15:08.282Z,24.90
2018-02-18T05:17:34.697Z,24.17
2018-02-18T05:20:01.544Z,25.50
2018-02-18T05:22:28.743Z,29.60
2018-02-18T05:24:55.212Z,24.48
2018-02-18T05:27:22.250Z,27.90
2018-02-18T05:29:50.905Z,32.35
2018-02-18T05:32:17.093Z,26.85
2018-02-18T05:34:44.806Z,32.35
2018-02-18T05:37:12.755Z,32.15
2018-02-18T05:39:39.655Z,24.55
2018-02-18T05:42:06.260Z,27.87
2018-02-18T05:44:33.332Z,31.48
2018-02-18T05:46:59.520Z,27.58
2018-02-18T05:49:25.941Z,26.27
2018-02-18T05:51:52.223Z,31.20
2018-02-18T05:54:18.589Z,32.50
2018-02-18T05:56:45.724Z,31.67
2018-02-18T05:59:12.810Z,31.75
2018-02-18T06:01:39.190Z,30.48
2018-02-18T06:04:05.966Z,27.15
2018-02-18T06:06:33.053Z,32.63
2018-02-18T06:08:59.998Z,32.10
2018-02-18T06:11:26.383Z,26.15
2018-02-18T06:13:54.058Z,29.37
2018-02-18T06:16:20.250Z,29.70
2018-02-18T06:18:46.454Z,23.42
2018-02-18T06:21:13.040Z,27.10
2018-02-18T06:23:41.060Z,26.73
2018-02-18T06:26:07.289Z,27.73
2018-02-18T06:28:33.486Z,23.98
2018-02-18T06:31:00.906Z,23.50
2018-02-18T06:33:28.407Z,22.40
2018-02-18T06:35:55.612Z,23.17
2018-02-18T06:38:22.605Z,27.70
2018-02-18T06:40:49.664Z,28.70
2018-02-18T06:43:16.707Z,29.35
2018-02-18T06:45:43.713Z,28.95
2018-02-18T06:48:10.419Z,23.08
2018-02-18T06:50:36.638Z,26.37
2018-02-18T06:53:02.980Z,26.83
2018-02-18T06:55:29.195Z,27.40
2018-02-18T06:57:55.488Z,24.23
2018-02-18T07:00:22.664Z,25.40
2018-02-18T07:02:48.954Z,26.42
2018-02-18T07:05:15.613Z,26.00
2018-02-18T07:07:42.703Z,24.85
2018-02-18T07:10:09.363Z,22.33
2018-02-18T07:12:36.190Z,25.30
2018-02-18T07:15:02.411Z,27.02
2018-02-18T07:17:32.758Z,26.00
2018-02-18T07:19:59.195Z,23.45
2018-02-18T07:22:25.626Z,24.10
2018-02-18T07:24:52.382Z,29.05
2018-02-18T07:27:18.906Z,25.27
2018-02-18T07:29:45.444Z,23.02
2018-02-18T07:32:12.657Z,26.98
2018-02-18T07:34:38.879Z,26.25
2018-02-18T07:37:05.540Z,26.20
2018-02-18T07:39:32.224Z,28.35
2018-02-18T07:41:59.600Z,35.53
2018-02-18T07:44:26.471Z,26.62
2018-02-18T07:46:53.434Z,31.12
2018-02-18T07:49:20.291Z,29.00
2018-02-18T07:51:46.623Z,30.20
2018-02-18T07:54:13.553Z,35.90
2018-02-18T07:56:40.867Z,29.20
2018-02-18T07:59:07.183Z,28.05
2018-02-18T08:01:33.426Z,27.70
2018-02-18T08:04:00.818Z,30.85
2018-02-18T08:06:27.194Z,30.50
2018-02-18T08:08:54.822Z,29.77
2018-02-18T08:11:21.748Z,25.35
2018-02-18T08:13:48.612Z,27.37
2018-02-18T08:16:16.239Z,26.23
2018-02-18T08:18:43.347Z,27.70
2018-02-18T08:21:10.839Z,25.05
2018-02-18T08:23:38.193Z,27.95
2018-02-18T08:26:05.029Z,27.33
2018-02-18T08:28:32.844Z,24.63
2018-02-18T08:30:59.639Z,26.02
2018-02-18T08:33:26.973Z,28.58
2018-02-18T08:35:54.291Z,27.55
2018-02-18T08:38:20.496Z,22.98
2018-02-18T08:40:47.701Z,25.52
2018-02-18T08:43:14.677Z,29.17
2018-02-18T08:45:41.772Z,25.73
2018-02-18T08:48:08.707Z,25.08
2018-02-18T08:50:35.712Z,46.25
2018-02-18T08:53:02.592Z,27.00
2018-02-18T08:55:29.327Z,23.80
2018-02-18T08:57:56.600Z,24.02
2018-02-18T09:00:23.629Z,21.87
2018-02-18T09:02:50.435Z,23.45
2018-02-18T09:05:16.687Z,22.80
2018-02-18T09:07:43.460Z,22.15
2018-02-18T09:10:10.961Z,23.70
2018-02-18T09:12:38.374Z,22.40
2018-02-18T09:15:05.452Z,23.25
2018-02-18T09:17:31.682Z,24.17
2018-02-18T09:19:58.597Z,27.70
2018-02-18T09:22:25.522Z,23.73
2018-02-18T09:24:52.469Z,23.85
2018-02-18T09:27:18.660Z,22.35
2018-02-18T09:29:44.859Z,24.55
2018-02-18T09:32:11.065Z,23.55
2018-02-18T09:34:38.011Z,23.70
2018-02-18T09:37:05.103Z,24.77
2018-02-18T09:39:31.912Z,24.52
2018-02-18T09:41:59.052Z,24.63
2018-02-18T09:44:26.956Z,25.20
2018-02-18T09:46:54.062Z,28.08
2018-02-18T09:49:21.326Z,28.08
2018-02-18T09:51:48.379Z,25.75
2018-02-18T09:54:14.621Z,30.30
2018-02-18T09:56:41.403Z,30.10
2018-02-18T09:59:07.907Z,32.35
2018-02-18T10:01:34.118Z,34.38
2018-02-18T10:04:00.335Z,30.02
2018-02-18T10:06:27.196Z,29.25
2018-02-18T10:08:54.014Z,29.48
2018-02-18T10:11:20.466Z,32.47
2018-02-18T10:13:47.192Z,28.70
2018-02-18T10:16:15.586Z,29.48
2018-02-18T10:18:42.229Z,26.77
2018-02-18T10:21:09.859Z,28.17
2018-02-18T10:23:37.511Z,29.52
2018-02-18T10:26:04.529Z,30.23
2018-02-18T10:28:31.072Z,28.50
2018-02-18T10:30:58.177Z,27.55
2018-02-18T10:33:24.372Z,28.40
2018-02-18T10:35:51.852Z,24.27
2018-02-18T10:38:18.581Z,25.05
2018-02-18T10:40:45.325Z,22.92
2018-02-18T10:43:12.348Z,23.40
2018-02-18T10:45:39.420Z,23.75
2018-02-18T10:48:05.926Z,24.58
2018-02-18T10:50:32.681Z,23.67
2018-02-18T10:53:00.993Z,25.08
2018-02-18T10:55:27.874Z,23.87
2018-02-18T10:57:55.019Z,24.25
2018-02-18T11:00:21.241Z,21.73
2018-02-18T11:02:47.416Z,22.08
2018-02-18T11:05:14.042Z,22.37
2018-02-18T11:07:40.995Z,22.62
2018-02-18T11:10:07.611Z,22.52
2018-02-18T11:12:34.553Z,23.35
2018-02-18T11:15:01.609Z,24.98
2018-02-18T11:17:28.832Z,25.25
2018-02-18T11:19:55.121Z,23.17
2018-02-18T11:22:21.497Z,23.83
2018-02-18T11:24:48.007Z,20.42
2018-02-18T11:27:14.733Z,21.85
2018-02-18T11:29:42.422Z,21.30
2018-02-18T11:32:09.214Z,23.12
2018-02-18T11:34:35.636Z,21.73
2018-02-18T11:37:03.152Z,22.65
2018-02-18T11:39:29.513Z,23.87
2018-02-18T11:41:57.908Z,23.38
2018-02-18T11:44:24.128Z,23.25
2018-02-18T11:46:52.152Z,23.92
2018-02-18T11:49:19.363Z,24.17
2018-02-18T11:51:46.042Z,23.92
2018-02-18T11:54:13.591Z,22.83
2018-02-18T11:56:40.335Z,24.15
2018-02-18T11:59:06.739Z,22.87
2018-02-18T12:01:33.010Z,20.83
2018-02-18T12:04:00.137Z,23.05
2018-02-18T12:06:27.402Z,22.58
2018-02-18T12:08:54.044Z,21.10
2018-02-18T12:11:20.384Z,24.20
2018-02-18T12:13:55.054Z,23.62
2018-02-18T12:16:21.675Z,23.15
2018-02-18T12:18:49.594Z,20.65
2018-02-18T12:21:15.775Z,22.48
2018-02-18T12:23:43.760Z,23.23
2018-02-18T12:26:10.921Z,22.65
2018-02-18T12:28:38.146Z,23.02
2018-02-18T12:31:05.466Z,20.58
2018-02-18T12:33:32.444Z,22.80
2018-02-18T12:35:59.655Z,22.35
2018-02-18T12:38:25.858Z,23.70
2018-02-18T12:40:52.719Z,23.67
2018-02-18T12:43:18.945Z,23.05
2018-02-18T12:45:45.177Z,23.55
2018-02-18T12:48:11.367Z,21.27
2018-02-18T12:50:37.600Z,22.77
2018-02-18T12:53:03.982Z,22.30
2018-02-18T12:55:30.468Z,24.73
2018-02-18T12:57:58.130Z,22.92
2018-02-18T13:00:24.507Z,23.70
2018-02-18T13:02:50.967Z,23.83
2018-02-18T13:05:17.264Z,23.35
2018-02-18T13:07:43.671Z,24.70
2018-02-18T13:10:09.940Z,22.20
2018-02-18T13:12:37.588Z,22.25
2018-02-18T13:15:04.632Z,12.30
2018-02-18T13:17:31.822Z,11.02
2018-02-18T13:19:58.168Z,11.52
2018-02-18T13:22:24.429Z,10.98
2018-02-18T13:24:50.916Z,10.52
2018-02-18T13:27:18.116Z,12.32
2018-02-18T13:29:44.414Z,11.18
2018-02-18T13:32:11.249Z,12.35
2018-02-18T13:34:37.557Z,11.25
2018-02-18T13:37:04.518Z,11.05
2018-02-18T13:39:30.848Z,10.50
2018-02-18T13:41:57.068Z,10.00
2018-02-18T13:44:23.255Z,11.07
2018-02-18T13:46:49.489Z,10.93
2018-02-18T13:49:16.176Z,9.60
2018-02-18T13:51:43.565Z,10.27
2018-02-18T13:54:09.923Z,10.07
2018-02-18T13:56:36.987Z,10.20
2018-02-18T13:59:03.999Z,9.48
2018-02-18T14:01:30.650Z,10.15
2018-02-18T14:03:58.352Z,10.15
2018-02-18T14:06:24.760Z,10.02
2018-02-18T14:08:52.933Z,10.25
2018-02-18T14:11:20.372Z,9.80
2018-02-18T14:13:47.139Z,10.50
2018-02-18T14:16:19.886Z,10.68
2018-02-18T14:18:47.396Z,9.95
2018-02-18T14:21:13.817Z,12.90
2018-02-18T14:23:40.059Z,12.25
2018-02-18T14:26:07.505Z,13.13
2018-02-18T14:28:34.499Z,11.10
2018-02-18T14:31:00.735Z,10.95
2018-02-18T14:33:27.313Z,11.27
2018-02-18T14:35:54.459Z,11.10
2018-02-18T14:38:21.396Z,10.52
2018-02-18T14:40:48.250Z,11.35
2018-02-18T14:43:26.760Z,11.02
2018-02-18T14:46:05.274Z,11.10
2018-02-18T14:48:43.893Z,11.35
2018-02-18T14:51:22.753Z,10.40
2018-02-18T14:54:02.461Z,10.30
2018-02-18T14:56:34.905Z,10.18
2018-02-18T14:59:01.327Z,9.52
2018-02-18T15:01:28.110Z,11.40
2018-02-18T15:03:54.875Z,9.25
2018-02-18T15:06:21.644Z,10.98
2018-02-18T15:08:48.494Z,9.90
2018-02-18T15:11:15.607Z,10.55
2018-02-18T15:13:41.824Z,10.95
2018-02-18T15:16:08.045Z,12.20
2018-02-18T15:18:34.554Z,12.05
2018-02-18T15:21:02.896Z,11.18
2018-02-18T15:23:30.230Z,10.43
2018-02-18T15:25:56.664Z,11.32
2018-02-18T15:28:23.817Z,11.35
2018-02-18T15:30:50.637Z,10.10
2018-02-18T15:33:17.998Z,10.45
2018-02-18T15:35:44.219Z,10.18
2018-02-18T15:38:10.989Z,11.82
2018-02-18T15:40:38.232Z,10.73
2018-02-18T15:43:05.480Z,11.55
2018-02-18T15:45:32.113Z,11.25
2018-02-18T15:47:58.751Z,11.35
2018-02-18T15:50:24.945Z,11.70
2018-02-18T15:52:51.490Z,10.38
2018-02-18T15:55:18.562Z,11.02
2018-02-18T15:57:45.396Z,11.75
2018-02-18T16:00:12.817Z,10.98
2018-02-18T16:02:40.534Z,10.55
2018-02-18T16:05:06.776Z,10.85
2018-02-18T16:07:33.264Z,11.15
2018-02-18T16:10:00.360Z,10.27
2018-02-18T16:12:26.621Z,11.70
2018-02-18T16:14:54.107Z,12.80
2018-02-18T16:17:20.367Z,12.02
2018-02-18T16:19:47.203Z,12.37
2018-02-18T16:22:13.996Z,11.52
2018-02-18T16:24:40.947Z,10.20
2018-02-18T16:27:07.418Z,12.23
2018-02-18T16:29:34.673Z,9.73
2018-02-18T16:32:00.939Z,11.00
2018-02-18T16:34:27.973Z,10.32
2018-02-18T16:36:54.262Z,10.20
2018-02-18T16:39:21.343Z,8.60
2018-02-18T16:41:47.829Z,7.97
2018-02-18T16:44:15.434Z,9.95
2018-02-18T16:46:44.017Z,8.50
2018-02-18T16:49:11.755Z,7.37
2018-02-18T16:51:38.749Z,8.57
2018-02-18T16:54:06.550Z,8.70
2018-02-18T16:56:33.755Z,9.13
2018-02-18T16:59:01.830Z,8.20
2018-02-18T17:01:28.814Z,8.50
2018-02-18T17:03:55.191Z,9.27
2018-02-18T17:06:22.018Z,7.82
2018-02-18T17:08:48.708Z,8.63
2018-02-18T17:11:15.230Z,9.65
2018-02-18T17:13:42.856Z,8.70
2018-02-18T17:16:10.214Z,9.82
2018-02-18T17:18:38.396Z,9.88
2018-02-18T17:21:05.885Z,9.45
2018-02-18T17:23:33.572Z,10.13
2018-02-18T17:25:59.897Z,10.82
2018-02-18T17:28:26.233Z,8.40
2018-02-18T17:30:52.453Z,8.25
2018-02-18T17:33:19.758Z,7.97
2018-02-18T17:35:46.556Z,7.47
2018-02-18T17:38:12.973Z,8.63
2018-02-18T17:40:39.219Z,8.50
2018-02-18T17:43:05.476Z,9.13
2018-02-18T17:45:32.700Z,9.65
2018-02-18T17:47:58.967Z,9.05
2018-02-18T17:50:25.221Z,9.77
2018-02-18T17:52:52.243Z,10.40
2018-02-18T17:55:19.882Z,9.95
2018-02-18T17:57:47.629Z,8.63
2018-02-18T18:00:14.105Z,8.75
2018-02-18T18:02:41.381Z,10.88
2018-02-18T18:05:08.349Z,10.20
2018-02-18T18:07:34.714Z,11.75
2018-02-18T18:10:01.595Z,8.45
2018-02-18T18:12:29.123Z,9.50
2018-02-18T18:14:55.378Z,9.48
2018-02-18T18:17:22.967Z,6.50
2018-02-18T18:19:49.440Z,6.62
2018-02-18T18:22:16.541Z,6.70
2018-02-18T18:24:43.587Z,8.15
2018-02-18T18:27:10.342Z,8.13
2018-02-18T18:29:36.866Z,7.32
2018-02-18T18:32:03.145Z,7.45
2018-02-18T18:34:29.384Z,7.53
2018-02-18T18:36:55.599Z,7.87
2018-02-18T18:39:21.790Z,8.10
2018-02-18T18:41:48.055Z,7.20
2018-02-18T18:44:16.064Z,6.85
2018-02-18T18:46:43.399Z,6.82
2018-02-18T18:49:10.395Z,7.30
2018-02-18T18:51:37.611Z,8.35
2018-02-18T18:54:04.577Z,6.85
2018-02-18T18:56:30.951Z,8.18
2018-02-18T18:58:58.092Z,7.65
2018-02-18T19:01:24.327Z,7.05
2018-02-18T19:03:52.333Z,6.32
2018-02-18T19:06:18.759Z,6.78
2018-02-18T19:08:45.148Z,7.45
2018-02-18T19:11:11.448Z,7.10
2018-02-18T19:13:38.309Z,7.12
2018-02-18T19:16:04.613Z,8.00
2018-02-18T19:18:30.951Z,6.70
2018-02-18T19:20:57.455Z,6.80
2018-02-18T19:23:24.428Z,7.95
2018-02-18T19:25:50.846Z,7.20
2018-02-18T19:28:19.213Z,7.35
2018-02-18T19:30:46.564Z,7.30
2018-02-18T19:33:13.445Z,7.68
2018-02-18T19:35:40.225Z,8.07
2018-02-18T19:38:07.607Z,7.00
2018-02-18T19:40:33.905Z,7.28
2018-02-18T19:43:00.618Z,6.97
2018-02-18T19:45:27.683Z,7.75
2018-02-18T19:47:54.496Z,7.43
2018-02-18T19:50:20.846Z,7.40
2018-02-18T19:52:47.114Z,6.07
2018-02-18T19:55:14.205Z,6.80
2018-02-18T19:57:42.184Z,7.30
2018-02-18T20:00:09.251Z,8.05
2018-02-18T20:02:35.469Z,5.78
2018-02-18T20:05:01.990Z,6.68
2018-02-18T20:07:28.842Z,6.40
2018-02-18T20:09:56.419Z,6.32
2018-02-18T20:12:24.331Z,5.95
2018-02-18T20:14:50.767Z,6.30
2018-02-18T20:17:17.474Z,5.78
2018-02-18T20:19:44.563Z,6.12
2018-02-18T20:22:11.358Z,6.45
2018-02-18T20:24:38.603Z,5.20
2018-02-18T20:27:04.892Z,6.18
2018-02-18T20:29:32.737Z,6.05
2018-02-18T20:31:59.734Z,7.20
2018-02-18T20:37:22.647Z,5.95
2018-02-18T20:45:36.827Z,5.70
2018-02-18T20:48:08.233Z,6.82
2018-02-18T20:50:38.049Z,6.32
2018-02-18T20:53:06.250Z,5.97
2018-02-18T20:55:33.297Z,6.80
2018-02-18T21:00:49.742Z,6.90
2018-02-18T21:05:59.249Z,7.07
2018-02-18T21:08:25.914Z,6.72
2018-02-18T21:10:53.052Z,6.93
2018-02-18T21:13:20.693Z,7.55
2018-02-18T21:15:51.855Z,7.00
2018-02-18T21:18:18.602Z,7.30
2018-02-18T21:20:45.758Z,6.37
2018-02-18T21:23:14.735Z,6.10
2018-02-18T21:25:41.352Z,7.10
2018-02-18T21:28:07.741Z,6.85
2018-02-18T21:30:36.951Z,6.97
2018-02-18T21:42:48.539Z,6.10
2018-02-18T21:45:18.474Z,6.60
2018-02-18T21:47:46.113Z,6.93
2018-02-18T21:56:17.134Z,6.47
2018-02-18T22:04:35.441Z,6.85
2018-02-18T22:07:07.870Z,6.68
2018-02-18T22:09:37.308Z,6.40
2018-02-18T22:12:07.068Z,7.20
2018-02-18T22:14:38.620Z,6.60
2018-02-18T22:17:10.198Z,6.80
2018-02-18T22:19:39.255Z,6.43
2018-02-18T22:22:05.773Z,6.20
2018-02-18T22:24:39.155Z,6.82
2018-02-18T23:46:51.167Z,6.78
2018-02-18T23:49:18.679Z,7.15
2018-02-18T23:51:45.730Z,7.00
2018-02-18T23:54:13.043Z,6.45
2018-02-18T23:56:39.903Z,7.10
2018-02-18T23:59:06.116Z,7.18
